AUS weather

Austin Bergstrom International Airport
Austin, Texas, United States

Public forecast

Using degrees Fahrenheit for public forecast. Weather courtesy of forecast.io.

METAR (pilot weather report)

Retrieved 2019/03/23 21:53 UTC (21 minutes ago):

KAUS 232153Z 16011KT 10SM FEW035 OVC047 23/16 A3002 RMK AO2 SLP159 T02330156 $

TAF (pilot weather forecast)

Retrieved 2019/03/23 18:36 UTC (4 hours ago):

TAF KAUS 231734Z 2318/2424 17013KT P6SM BKN020 BKN035 FM240000 16010KT P6SM OVC035 FM240300 17009KT P6SM OVC025 FM240500 18008KT P6SM OVC015 FM241000 18005KT 6SM BR OVC007 FM241600 19008KT P6SM OVC015